createdAt,value
2023-01-22T00:01:19.882Z,15.52
2023-01-22T00:03:49.036Z,13.20
2023-01-22T00:06:16.198Z,19.10
2023-01-22T00:08:43.201Z,17.30
2023-01-22T00:11:11.982Z,13.82
2023-01-22T00:13:39.027Z,14.85
2023-01-22T00:16:07.924Z,13.93
2023-01-22T00:18:34.952Z,11.38
2023-01-22T00:21:01.993Z,16.55
2023-01-22T00:23:28.891Z,14.23
2023-01-22T00:26:13.382Z,18.85
2023-01-22T00:28:41.575Z,15.85
2023-01-22T00:31:12.689Z,15.77
2023-01-22T00:33:40.711Z,14.70
2023-01-22T00:36:15.638Z,14.68
2023-01-22T00:38:42.591Z,16.45
2023-01-22T00:41:12.231Z,13.93
2023-01-22T00:43:40.459Z,18.75
2023-01-22T00:46:12.406Z,21.85
2023-01-22T00:48:39.800Z,15.32
2023-01-22T00:51:08.670Z,16.60
2023-01-22T00:53:43.552Z,13.77
2023-01-22T00:56:13.728Z,14.93
2023-01-22T00:58:41.073Z,14.45
2023-01-22T01:01:08.832Z,17.05
2023-01-22T01:03:37.540Z,15.35
2023-01-22T01:06:07.766Z,15.73
2023-01-22T01:08:40.167Z,13.07
2023-01-22T01:11:16.236Z,11.80
2023-01-22T01:13:45.111Z,13.55
2023-01-22T01:16:21.545Z,15.45
2023-01-22T01:18:48.895Z,16.02
2023-01-22T01:21:17.061Z,14.18
2023-01-22T01:23:44.084Z,16.75
2023-01-22T01:26:15.697Z,15.80
2023-01-22T01:28:45.557Z,16.85
2023-01-22T01:31:16.729Z,12.10
2023-01-22T01:33:45.222Z,14.45
2023-01-22T01:36:35.513Z,14.30
2023-01-22T01:39:09.637Z,16.00
2023-01-22T01:41:36.693Z,20.75
2023-01-22T01:44:24.528Z,16.20
2023-01-22T01:47:05.703Z,19.02
2023-01-22T01:49:45.213Z,18.10
2023-01-22T01:52:15.449Z,16.50
2023-01-22T01:54:51.836Z,14.60
2023-01-22T01:57:26.786Z,14.23
2023-01-22T01:59:56.110Z,11.30
2023-01-22T02:02:23.282Z,16.25
2023-01-22T02:04:53.214Z,17.95
2023-01-22T02:07:20.814Z,17.38
2023-01-22T02:09:47.873Z,15.20
2023-01-22T02:12:15.053Z,15.57
2023-01-22T02:14:45.893Z,14.40
2023-01-22T02:17:21.681Z,17.95
2023-01-22T02:19:48.909Z,14.43
2023-01-22T02:22:45.226Z,15.65
2023-01-22T02:25:12.335Z,17.95
2023-01-22T02:27:39.193Z,20.40
2023-01-22T02:30:07.885Z,17.48
2023-01-22T02:32:34.761Z,16.63
2023-01-22T02:35:01.628Z,14.80
2023-01-22T02:37:28.504Z,14.68
2023-01-22T02:39:55.373Z,18.40
2023-01-22T02:42:23.621Z,17.00
2023-01-22T02:44:52.849Z,16.55
2023-01-22T02:47:20.818Z,13.98
2023-01-22T02:49:48.009Z,18.10
2023-01-22T02:52:14.866Z,17.55
2023-01-22T02:54:41.725Z,16.55
2023-01-22T02:57:08.766Z,15.43
2023-01-22T02:59:35.693Z,18.85
2023-01-22T03:02:02.585Z,20.60
2023-01-22T03:04:29.730Z,15.02
2023-01-22T03:06:56.623Z,16.25
2023-01-22T03:09:23.496Z,21.80
2023-01-22T03:11:50.619Z,15.23
2023-01-22T03:14:36.355Z,16.83
2023-01-22T03:17:22.579Z,19.42
2023-01-22T03:20:08.058Z,15.10
2023-01-22T03:22:34.983Z,15.20
2023-01-22T03:25:02.555Z,16.67
2023-01-22T03:27:32.033Z,17.58
2023-01-22T03:29:59.122Z,15.65
2023-01-22T03:32:26.390Z,24.35
2023-01-22T03:34:53.741Z,17.73
2023-01-22T03:37:20.748Z,19.15
2023-01-22T03:39:47.992Z,15.70
2023-01-22T03:42:14.904Z,13.15
2023-01-22T03:44:41.851Z,18.25
2023-01-22T03:47:08.726Z,15.40
2023-01-22T03:49:35.597Z,14.27
2023-01-22T03:52:02.479Z,15.77
2023-01-22T03:54:29.366Z,15.15
2023-01-22T03:56:56.276Z,14.27
2023-01-22T03:59:23.143Z,12.95
2023-01-22T04:01:50.865Z,16.02
2023-01-22T04:04:17.720Z,13.88
2023-01-22T04:06:44.675Z,14.52
2023-01-22T04:09:11.571Z,14.48
2023-01-22T04:11:38.491Z,16.80
2023-01-22T04:14:05.357Z,17.88
2023-01-22T04:16:32.242Z,10.32
2023-01-22T04:18:59.339Z,15.55
2023-01-22T04:21:26.196Z,15.65
2023-01-22T04:23:53.135Z,14.88
2023-01-22T04:26:20.065Z,17.23
2023-01-22T04:28:46.920Z,16.92
2023-01-22T04:31:13.929Z,15.13
2023-01-22T04:33:40.899Z,15.57
2023-01-22T04:36:09.154Z,15.60
2023-01-22T04:38:36.032Z,16.20
2023-01-22T04:41:02.904Z,17.67
2023-01-22T04:43:29.780Z,20.17
2023-01-22T04:45:56.678Z,15.85
2023-01-22T04:48:23.543Z,18.45
2023-01-22T04:50:50.458Z,15.00
2023-01-22T04:53:17.449Z,16.73
2023-01-22T04:55:44.326Z,20.52
2023-01-22T04:58:11.223Z,15.73
2023-01-22T05:00:38.288Z,17.33
2023-01-22T05:03:05.471Z,19.95
2023-01-22T05:05:34.000Z,17.20
2023-01-22T05:08:01.522Z,20.02
2023-01-22T05:10:28.888Z,19.55
2023-01-22T05:12:56.151Z,15.70
2023-01-22T05:15:24.683Z,20.38
2023-01-22T05:17:53.325Z,16.25
2023-01-22T05:20:21.711Z,15.18
2023-01-22T05:22:49.474Z,15.57
2023-01-22T05:25:16.582Z,16.52
2023-01-22T05:27:43.942Z,10.63
2023-01-22T05:30:12.959Z,18.17
2023-01-22T05:32:39.912Z,12.98
2023-01-22T05:35:07.681Z,17.77
2023-01-22T05:37:34.753Z,12.73
2023-01-22T05:40:01.814Z,15.30
2023-01-22T05:42:28.739Z,14.48
2023-01-22T05:44:55.602Z,15.57
2023-01-22T05:47:22.444Z,14.90
2023-01-22T05:49:49.325Z,14.57
2023-01-22T05:52:16.326Z,15.20
2023-01-22T05:54:43.216Z,17.23
2023-01-22T05:57:10.104Z,20.77
2023-01-22T05:59:36.995Z,20.13
2023-01-22T06:02:03.993Z,16.45
2023-01-22T06:04:30.960Z,13.25
2023-01-22T06:06:57.875Z,15.32
2023-01-22T06:09:25.378Z,14.55
2023-01-22T06:11:52.500Z,15.40
2023-01-22T06:14:19.369Z,16.20
2023-01-22T06:16:46.438Z,17.50
2023-01-22T06:19:13.670Z,15.52
2023-01-22T06:21:41.029Z,19.52
2023-01-22T06:24:08.192Z,16.65
2023-01-22T06:26:35.124Z,17.40
2023-01-22T06:29:01.989Z,19.52
2023-01-22T06:31:29.093Z,17.70
2023-01-22T06:33:56.082Z,15.32
2023-01-22T06:36:23.068Z,19.75
2023-01-22T06:38:50.181Z,15.57
2023-01-22T06:41:17.032Z,23.40
2023-01-22T06:43:44.003Z,17.48
2023-01-22T06:46:10.965Z,18.20
2023-01-22T06:48:37.885Z,14.15
2023-01-22T06:51:05.118Z,15.18
2023-01-22T06:53:35.823Z,15.85
2023-01-22T06:56:03.547Z,18.17
2023-01-22T06:58:31.061Z,18.75
2023-01-22T07:01:05.761Z,16.73
2023-01-22T07:03:32.852Z,16.02
2023-01-22T07:06:04.112Z,16.80
2023-01-22T07:08:33.512Z,15.60
2023-01-22T07:11:01.390Z,24.90
2023-01-22T07:13:28.327Z,21.92
2023-01-22T07:15:55.331Z,31.65
2023-01-22T07:18:23.789Z,25.67
2023-01-22T07:20:51.197Z,22.35
2023-01-22T07:23:18.155Z,18.65
2023-01-22T07:25:45.914Z,26.25
2023-01-22T07:28:15.328Z,28.08
2023-01-22T07:30:46.253Z,23.15
2023-01-22T07:33:14.490Z,29.40
2023-01-22T07:35:42.224Z,25.10
2023-01-22T07:38:09.597Z,21.70
2023-01-22T07:40:36.656Z,27.05
2023-01-22T07:43:07.649Z,26.58
2023-01-22T07:45:35.440Z,23.00
2023-01-22T07:48:02.608Z,21.30
2023-01-22T07:50:31.911Z,22.73
2023-01-22T07:53:00.506Z,19.42
2023-01-22T07:55:28.409Z,20.13
2023-01-22T07:58:06.178Z,18.95
2023-01-22T08:00:36.286Z,27.45
2023-01-22T08:03:10.314Z,19.40
2023-01-22T08:05:42.727Z,17.67
2023-01-22T08:08:22.399Z,15.27
2023-01-22T08:10:49.503Z,22.10
2023-01-22T08:13:16.442Z,25.27
2023-01-22T08:15:43.891Z,18.15
2023-01-22T08:18:12.206Z,21.77
2023-01-22T08:20:39.201Z,22.50
2023-01-22T08:23:06.051Z,17.00
2023-01-22T08:25:32.974Z,20.00
2023-01-22T08:28:04.947Z,23.77
2023-01-22T08:30:45.450Z,16.73
2023-01-22T08:33:12.977Z,14.55
2023-01-22T08:35:39.967Z,14.68
2023-01-22T08:38:06.889Z,16.48
2023-01-22T08:40:33.883Z,19.83
2023-01-22T08:43:00.759Z,15.73
2023-01-22T08:45:27.740Z,15.13
2023-01-22T08:47:59.706Z,13.95
2023-01-22T08:50:28.745Z,14.38
2023-01-22T08:52:59.080Z,15.25
2023-01-22T08:55:27.712Z,17.35
2023-01-22T08:57:57.219Z,14.38
2023-01-22T09:00:25.399Z,14.85
2023-01-22T09:03:55.699Z,12.25
2023-01-22T09:06:23.119Z,11.82
2023-01-22T09:08:50.057Z,13.35
2023-01-22T09:11:17.374Z,13.07
2023-01-22T09:13:44.252Z,12.30
2023-01-22T09:16:12.036Z,14.20
2023-01-22T09:18:40.013Z,16.25
2023-01-22T09:21:08.572Z,12.02
2023-01-22T09:23:35.538Z,12.05
2023-01-22T09:26:02.563Z,11.05
2023-01-22T09:28:29.439Z,9.57
2023-01-22T09:30:56.501Z,13.15
2023-01-22T09:33:23.559Z,12.80
2023-01-22T09:35:50.448Z,12.10
2023-01-22T09:38:18.623Z,10.20
2023-01-22T09:40:58.504Z,10.32
2023-01-22T09:43:46.428Z,11.50
2023-01-22T09:46:29.083Z,12.27
2023-01-22T09:49:17.284Z,11.57
2023-01-22T09:52:05.344Z,10.65
2023-01-22T09:54:34.067Z,8.80
2023-01-22T09:57:13.008Z,10.65
2023-01-22T09:59:56.631Z,7.85
2023-01-22T10:02:38.111Z,8.15
2023-01-22T10:05:42.991Z,11.13
2023-01-22T10:08:26.696Z,10.75
2023-01-22T10:10:54.350Z,9.50
2023-01-22T10:13:34.867Z,10.23
2023-01-22T10:16:04.015Z,8.40
2023-01-22T10:18:54.230Z,7.60
2023-01-22T10:21:45.716Z,10.00
2023-01-22T10:24:13.510Z,7.40
2023-01-22T10:26:54.432Z,11.43
2023-01-22T10:29:33.853Z,7.30
2023-01-22T10:32:22.457Z,7.20
2023-01-22T10:35:19.784Z,7.50
2023-01-22T10:37:55.153Z,9.10
2023-01-22T10:40:40.836Z,16.77
2023-01-22T10:43:17.775Z,9.07
2023-01-22T10:46:01.880Z,7.90
2023-01-22T10:48:28.761Z,10.50
2023-01-22T10:51:27.310Z,8.57
2023-01-22T10:53:58.151Z,7.53
2023-01-22T10:56:36.104Z,7.10
2023-01-22T10:59:22.876Z,7.00
2023-01-22T11:02:00.633Z,7.60
2023-01-22T11:04:33.752Z,9.10
2023-01-22T11:07:32.684Z,7.93
2023-01-22T11:10:25.795Z,7.10
2023-01-22T11:13:26.066Z,6.40
2023-01-22T11:16:20.623Z,7.40
2023-01-22T11:19:06.875Z,6.53
2023-01-22T11:21:44.218Z,5.50
2023-01-22T11:24:25.510Z,6.10
2023-01-22T11:27:19.446Z,6.03
2023-01-22T11:30:38.704Z,7.10
2023-01-22T11:33:58.879Z,6.97
2023-01-22T11:37:05.582Z,6.43
2023-01-22T11:39:57.318Z,5.60
2023-01-22T11:43:05.107Z,5.47
2023-01-22T11:46:26.538Z,6.97
2023-01-22T11:49:42.726Z,6.65
2023-01-22T11:52:33.428Z,5.80
2023-01-22T11:55:16.639Z,5.87
2023-01-22T11:58:11.612Z,6.63
2023-01-22T12:01:24.368Z,8.48
2023-01-22T12:04:25.898Z,6.97
2023-01-22T12:07:41.281Z,5.95
2023-01-22T12:10:13.627Z,5.93
2023-01-22T12:13:19.290Z,5.63
2023-01-22T12:16:40.339Z,4.70
2023-01-22T12:20:08.221Z,4.82
2023-01-22T12:22:55.991Z,6.07
2023-01-22T12:26:14.617Z,6.07
2023-01-22T12:28:58.248Z,8.67
2023-01-22T12:32:02.430Z,6.80
2023-01-22T12:34:41.788Z,6.18
2023-01-22T12:37:18.732Z,4.67
2023-01-22T12:40:24.855Z,14.03
2023-01-22T12:43:05.185Z,5.50
2023-01-22T12:45:56.851Z,6.30
2023-01-22T12:48:56.829Z,7.20
2023-01-22T12:51:50.659Z,7.73
2023-01-22T12:54:27.503Z,6.97
2023-01-22T12:57:14.039Z,6.17
2023-01-22T12:59:58.155Z,7.40
2023-01-22T13:02:37.834Z,5.72
2023-01-22T13:05:30.968Z,6.63
2023-01-22T13:08:16.829Z,5.63
2023-01-22T13:11:08.284Z,7.88
2023-01-22T13:14:13.669Z,6.75
2023-01-22T13:16:51.741Z,7.82
2023-01-22T13:19:40.403Z,7.35
2023-01-22T13:22:16.560Z,10.07
2023-01-22T13:24:59.344Z,7.03
2023-01-22T13:27:36.205Z,6.97
2023-01-22T13:30:26.820Z,7.65
2023-01-22T13:33:16.181Z,6.90
2023-01-22T13:35:46.242Z,5.50
2023-01-22T13:38:21.018Z,8.00
2023-01-22T13:41:25.917Z,6.75
2023-01-22T13:43:53.033Z,7.55
2023-01-22T13:46:20.114Z,8.18
2023-01-22T13:48:47.149Z,6.88
2023-01-22T13:51:21.551Z,8.27
2023-01-22T13:53:54.819Z,10.90
2023-01-22T13:56:27.653Z,7.18
2023-01-22T13:59:34.952Z,6.40
2023-01-22T14:02:20.164Z,6.07
2023-01-22T14:04:49.191Z,7.35
2023-01-22T14:07:39.515Z,8.38
2023-01-22T14:10:24.829Z,8.60
2023-01-22T14:13:09.170Z,8.33
2023-01-22T14:15:38.929Z,7.45
2023-01-22T14:18:16.092Z,6.30
2023-01-22T14:20:46.737Z,7.43
2023-01-22T14:23:15.422Z,11.98
2023-01-22T14:25:51.375Z,8.90
2023-01-22T14:28:21.643Z,7.45
2023-01-22T14:30:50.116Z,8.60
2023-01-22T14:33:26.579Z,5.60
2023-01-22T14:35:55.134Z,6.97
2023-01-22T14:38:25.556Z,9.60
2023-01-22T14:40:53.830Z,9.70
2023-01-22T14:43:21.406Z,9.45
2023-01-22T14:45:48.756Z,9.63
2023-01-22T14:48:20.433Z,12.18
2023-01-22T14:50:49.741Z,14.82
2023-01-22T14:53:19.407Z,8.85
2023-01-22T14:55:46.899Z,10.82
2023-01-22T14:58:16.086Z,17.60
2023-01-22T15:00:44.389Z,15.23
2023-01-22T15:03:11.541Z,11.30
2023-01-22T15:05:38.511Z,16.17
2023-01-22T15:08:06.371Z,9.48
2023-01-22T15:10:34.366Z,10.65
2023-01-22T15:13:07.174Z,11.85
2023-01-22T15:15:34.090Z,8.77
2023-01-22T15:18:01.271Z,8.35
2023-01-22T15:20:29.111Z,10.43
2023-01-22T15:22:56.075Z,13.05
2023-01-22T15:25:23.235Z,12.15
2023-01-22T15:27:50.369Z,9.15
2023-01-22T15:30:18.038Z,9.85
2023-01-22T15:32:45.203Z,11.07
2023-01-22T15:35:12.642Z,6.95
2023-01-22T15:37:47.349Z,10.00
2023-01-22T15:40:15.569Z,8.50
2023-01-22T15:42:42.569Z,11.52
2023-01-22T15:45:10.307Z,15.55
2023-01-22T15:47:37.353Z,12.88
2023-01-22T15:50:07.196Z,11.30
2023-01-22T15:52:34.506Z,14.60
2023-01-22T15:55:01.701Z,17.35
2023-01-22T15:57:28.621Z,13.30
2023-01-22T15:59:55.562Z,15.10
2023-01-22T16:02:22.542Z,15.43
2023-01-22T16:04:49.592Z,12.43
2023-01-22T16:07:16.614Z,12.93
2023-01-22T16:09:43.617Z,13.20
2023-01-22T16:12:10.696Z,13.02
2023-01-22T16:14:37.637Z,26.25
2023-01-22T16:17:04.757Z,18.50
2023-01-22T16:19:31.674Z,23.75
2023-01-22T16:21:58.662Z,21.45
2023-01-22T16:24:25.599Z,17.05
2023-01-22T16:26:52.559Z,22.65
2023-01-22T16:29:19.481Z,15.77
2023-01-22T16:31:46.458Z,16.02
2023-01-22T16:34:18.229Z,16.80
2023-01-22T16:36:45.525Z,15.55
2023-01-22T16:39:23.471Z,14.35
2023-01-22T16:41:52.823Z,16.02
2023-01-22T16:44:27.271Z,16.73
2023-01-22T16:46:57.722Z,21.73
2023-01-22T16:49:30.397Z,16.98
2023-01-22T16:52:21.410Z,14.63
2023-01-22T16:54:49.670Z,14.95
2023-01-22T16:57:17.956Z,11.82
2023-01-22T16:59:46.107Z,17.67
2023-01-22T17:02:16.480Z,15.82
2023-01-22T17:04:44.744Z,16.42
2023-01-22T17:07:27.418Z,12.50
2023-01-22T17:09:58.956Z,14.43
2023-01-22T17:12:26.379Z,17.08
2023-01-22T17:14:53.293Z,19.25
2023-01-22T17:17:20.206Z,21.63
2023-01-22T17:19:47.182Z,17.90
2023-01-22T17:22:14.147Z,17.77
2023-01-22T17:24:41.641Z,19.42
2023-01-22T17:27:08.721Z,24.33
2023-01-22T17:29:36.193Z,15.35
2023-01-22T17:32:04.497Z,17.63
2023-01-22T17:34:31.649Z,18.23
2023-01-22T17:36:58.556Z,16.48
2023-01-22T17:39:25.531Z,22.33
2023-01-22T17:41:52.454Z,20.08
2023-01-22T17:44:19.711Z,13.40
2023-01-22T17:46:48.934Z,16.73
2023-01-22T17:49:15.888Z,17.40
2023-01-22T17:51:43.745Z,20.58
2023-01-22T17:54:10.715Z,19.52
2023-01-22T17:56:45.431Z,16.75
2023-01-22T17:59:13.079Z,17.50
2023-01-22T18:01:40.914Z,19.73
2023-01-22T18:04:13.367Z,21.95
2023-01-22T18:06:43.975Z,29.73
2023-01-22T18:09:12.647Z,27.67
2023-01-22T18:11:41.870Z,26.33
2023-01-22T18:14:22.008Z,23.40
2023-01-22T18:16:50.747Z,18.67
2023-01-22T18:19:18.896Z,16.30
2023-01-22T18:21:46.153Z,26.77
2023-01-22T18:24:13.665Z,17.73
2023-01-22T18:26:41.484Z,31.98
2023-01-22T18:29:10.099Z,21.40
2023-01-22T18:31:37.910Z,18.75
2023-01-22T18:34:08.993Z,18.52
2023-01-22T18:36:39.255Z,20.15
2023-01-22T18:39:17.627Z,22.55
2023-01-22T18:41:46.855Z,28.05
2023-01-22T18:44:16.066Z,19.77
2023-01-22T18:46:47.348Z,18.85
2023-01-22T18:49:19.150Z,20.17
2023-01-22T18:51:46.287Z,17.48
2023-01-22T18:54:13.695Z,24.77
2023-01-22T18:56:41.361Z,19.20
2023-01-22T18:59:12.870Z,21.52
2023-01-22T19:01:41.008Z,16.95
2023-01-22T19:04:17.839Z,23.05
2023-01-22T19:06:52.235Z,17.55
2023-01-22T19:09:20.536Z,28.45
2023-01-22T19:11:52.648Z,21.60
2023-01-22T19:14:21.400Z,19.85
2023-01-22T19:16:53.279Z,19.50
2023-01-22T19:19:25.622Z,17.13
2023-01-22T19:21:58.616Z,16.65
2023-01-22T19:24:28.447Z,19.42
2023-01-22T19:26:57.605Z,18.85
2023-01-22T19:29:30.844Z,18.42
2023-01-22T19:31:57.959Z,19.08
2023-01-22T19:34:25.991Z,13.10
2023-01-22T19:37:06.245Z,16.92
2023-01-22T19:39:35.909Z,20.20
2023-01-22T19:42:06.614Z,26.45
2023-01-22T19:44:35.427Z,29.45
2023-01-22T19:47:03.562Z,24.92
2023-01-22T19:49:31.144Z,18.70
2023-01-22T19:51:59.460Z,19.83
2023-01-22T19:54:26.857Z,19.88
2023-01-22T19:56:54.219Z,21.55
2023-01-22T19:59:23.822Z,21.10
2023-01-22T20:01:51.909Z,21.95
2023-01-22T20:04:29.689Z,14.25
2023-01-22T20:07:01.580Z,17.65
2023-01-22T20:09:30.760Z,16.50
2023-01-22T20:11:59.202Z,17.10
2023-01-22T20:14:33.810Z,25.08
2023-01-22T20:17:03.120Z,18.27
2023-01-22T20:19:31.419Z,19.92
2023-01-22T20:22:00.416Z,24.40
2023-01-22T20:24:28.236Z,17.33
2023-01-22T20:26:58.105Z,22.33
2023-01-22T20:29:26.088Z,19.23
2023-01-22T20:31:54.663Z,20.27
2023-01-22T20:34:23.422Z,18.38
2023-01-22T20:36:51.507Z,16.15
2023-01-22T20:39:19.664Z,21.05
2023-01-22T20:41:47.261Z,17.35
2023-01-22T20:44:14.979Z,19.70
2023-01-22T20:46:44.525Z,19.27
2023-01-22T20:49:13.197Z,20.67
2023-01-22T20:51:42.559Z,18.83
2023-01-22T20:54:10.984Z,15.13
2023-01-22T20:56:38.644Z,16.77
2023-01-22T20:59:12.040Z,15.73
2023-01-22T21:01:39.800Z,17.35
2023-01-22T21:04:07.543Z,21.27
2023-01-22T21:06:36.827Z,17.52
2023-01-22T21:09:06.087Z,16.88
2023-01-22T21:11:40.700Z,16.80
2023-01-22T21:14:20.572Z,18.40
2023-01-22T21:16:48.988Z,13.40
2023-01-22T21:19:23.763Z,18.15
2023-01-22T21:21:52.603Z,18.40
2023-01-22T21:24:20.420Z,14.77
2023-01-22T21:26:47.409Z,14.65
2023-01-22T21:29:20.844Z,18.88
2023-01-22T21:31:51.665Z,15.73
2023-01-22T21:34:23.971Z,15.77
2023-01-22T21:36:54.190Z,18.95
2023-01-22T21:39:29.538Z,17.70
2023-01-22T21:42:16.152Z,14.52
2023-01-22T21:45:03.144Z,18.83
2023-01-22T21:47:30.705Z,18.02
2023-01-22T21:49:57.697Z,12.38
2023-01-22T21:52:26.102Z,18.48
2023-01-22T21:54:52.956Z,18.65
2023-01-22T21:57:19.820Z,20.65
2023-01-22T21:59:46.964Z,26.52
2023-01-22T22:02:17.503Z,31.55
2023-01-22T22:04:45.140Z,24.73
2023-01-22T22:07:12.950Z,23.23
2023-01-22T22:09:40.310Z,19.60
2023-01-22T22:12:07.335Z,19.35
2023-01-22T22:14:34.269Z,16.85
2023-01-22T22:17:01.148Z,20.42
2023-01-22T22:19:28.811Z,53.22
2023-01-22T22:21:55.879Z,114.22
2023-01-22T22:24:23.042Z,42.88
2023-01-22T22:26:50.192Z,30.70
2023-01-22T22:29:17.163Z,19.52
2023-01-22T22:31:44.376Z,17.95
2023-01-22T22:34:11.328Z,20.00
2023-01-22T22:36:39.036Z,20.45
2023-01-22T22:39:06.735Z,18.38
2023-01-22T22:41:37.021Z,18.70
2023-01-22T22:44:05.453Z,16.25
2023-01-22T22:46:38.169Z,18.45
2023-01-22T22:49:07.264Z,15.88
2023-01-22T22:51:41.928Z,15.73
2023-01-22T22:54:18.551Z,14.73
2023-01-22T22:56:51.166Z,13.52
2023-01-22T22:59:19.664Z,17.65
2023-01-22T23:01:50.883Z,18.45
2023-01-22T23:04:18.076Z,21.52
2023-01-22T23:06:46.254Z,13.95
2023-01-22T23:09:21.889Z,17.60
2023-01-22T23:11:55.759Z,16.27
2023-01-22T23:14:23.403Z,14.23
2023-01-22T23:16:50.781Z,13.88
2023-01-22T23:19:26.066Z,16.85
2023-01-22T23:21:58.504Z,14.93
2023-01-22T23:24:27.673Z,19.60
2023-01-22T23:26:55.376Z,17.83
2023-01-22T23:29:26.522Z,17.15
2023-01-22T23:31:53.943Z,15.15
2023-01-22T23:34:22.754Z,18.77
2023-01-22T23:36:51.404Z,14.15
2023-01-22T23:39:21.640Z,14.90
2023-01-22T23:41:48.611Z,19.27
2023-01-22T23:44:15.566Z,17.17
2023-01-22T23:46:42.795Z,15.95
2023-01-22T23:49:10.668Z,19.02
2023-01-22T23:51:40.916Z,14.68
2023-01-22T23:54:08.743Z,16.90
2023-01-22T23:56:35.875Z,15.65
2023-01-22T23:59:03.619Z,15.00
